sensor_id;sensor_type;location;lat;lon;timestamp;temperature;humidity
7704;DHT22;3894;49.700;10.770;2023-08-30T00:01:59;13.40;99.90
7704;DHT22;3894;49.700;10.770;2023-08-30T00:04:28;13.30;99.90
7704;DHT22;3894;49.700;10.770;2023-08-30T00:06:54;13.20;99.90
7704;DHT22;3894;49.700;10.770;2023-08-30T00:09:19;13.20;99.90
7704;DHT22;3894;49.700;10.770;2023-08-30T00:11:45;13.10;99.90
7704;DHT22;3894;49.700;10.770;2023-08-30T00:14:11;13.10;99.90
7704;DHT22;3894;49.700;10.770;2023-08-30T00:16:41;13.10;99.90
7704;DHT22;3894;49.700;10.770;2023-08-30T00:19:10;13.10;99.90
7704;DHT22;3894;49.700;10.770;2023-08-30T00:21:38;13.10;99.90
7704;DHT22;3894;49.700;10.770;2023-08-30T00:24:07;13.10;99.90
7704;DHT22;3894;49.700;10.770;2023-08-30T00:26:32;13.20;99.90
7704;DHT22;3894;49.700;10.770;2023-08-30T00:28:58;13.20;99.90
7704;DHT22;3894;49.700;10.770;2023-08-30T00:31:26;13.20;99.90
7704;DHT22;3894;49.700;10.770;2023-08-30T00:33:52;13.20;99.90
7704;DHT22;3894;49.700;10.770;2023-08-30T00:36:20;13.30;99.90
7704;DHT22;3894;49.700;10.770;2023-08-30T00:38:49;13.30;99.90
7704;DHT22;3894;49.700;10.770;2023-08-30T00:41:17;13.30;99.90
7704;DHT22;3894;49.700;10.770;2023-08-30T00:43:43;13.20;99.90
7704;DHT22;3894;49.700;10.770;2023-08-30T00:46:08;13.20;99.90
7704;DHT22;3894;49.700;10.770;2023-08-30T00:48:37;13.20;99.90
7704;DHT22;3894;49.700;10.770;2023-08-30T00:51:08;13.20;99.90
7704;DHT22;3894;49.700;10.770;2023-08-30T00:53:40;13.20;99.90
7704;DHT22;3894;49.700;10.770;2023-08-30T00:56:21;13.20;99.90
7704;DHT22;3894;49.700;10.770;2023-08-30T00:58:53;13.10;99.90
7704;DHT22;3894;49.700;10.770;2023-08-30T01:01:18;13.10;99.90
7704;DHT22;3894;49.700;10.770;2023-08-30T01:03:53;13.10;99.90
7704;DHT22;3894;49.700;10.770;2023-08-30T01:06:20;13.00;99.90
7704;DHT22;3894;49.700;10.770;2023-08-30T01:08:45;13.00;99.90
7704;DHT22;3894;49.700;10.770;2023-08-30T01:11:22;13.00;99.90
7704;DHT22;3894;49.700;10.770;2023-08-30T01:16:26;13.10;99.90
7704;DHT22;3894;49.700;10.770;2023-08-30T01:18:56;13.10;99.90
7704;DHT22;3894;49.700;10.770;2023-08-30T01:21:37;13.10;99.90
7704;DHT22;3894;49.700;10.770;2023-08-30T01:24:07;13.10;99.90
7704;DHT22;3894;49.700;10.770;2023-08-30T01:29:23;13.00;99.90
7704;DHT22;3894;49.700;10.770;2023-08-30T01:31:49;12.90;99.90
7704;DHT22;3894;49.700;10.770;2023-08-30T01:34:16;12.90;99.90
7704;DHT22;3894;49.700;10.770;2023-08-30T01:36:42;12.80;99.90
7704;DHT22;3894;49.700;10.770;2023-08-30T01:39:15;12.80;99.90
7704;DHT22;3894;49.700;10.770;2023-08-30T01:41:41;12.70;99.90
7704;DHT22;3894;49.700;10.770;2023-08-30T01:44:08;12.80;99.90
7704;DHT22;3894;49.700;10.770;2023-08-30T01:46:38;12.80;99.90
7704;DHT22;3894;49.700;10.770;2023-08-30T01:49:06;12.80;99.90
7704;DHT22;3894;49.700;10.770;2023-08-30T01:51:39;12.90;99.90
7704;DHT22;3894;49.700;10.770;2023-08-30T01:54:11;13.00;99.90
7704;DHT22;3894;49.700;10.770;2023-08-30T01:56:42;12.90;99.90
7704;DHT22;3894;49.700;10.770;2023-08-30T01:59:10;13.00;99.90
7704;DHT22;3894;49.700;10.770;2023-08-30T02:01:35;13.00;99.90
7704;DHT22;3894;49.700;10.770;2023-08-30T02:04:01;13.00;99.90
7704;DHT22;3894;49.700;10.770;2023-08-30T02:09:09;12.90;99.90
7704;DHT22;3894;49.700;10.770;2023-08-30T02:11:44;13.00;99.90
7704;DHT22;3894;49.700;10.770;2023-08-30T02:14:16;13.00;99.90
7704;DHT22;3894;49.700;10.770;2023-08-30T02:16:45;13.00;99.90
7704;DHT22;3894;49.700;10.770;2023-08-30T02:19:11;13.00;99.90
7704;DHT22;3894;49.700;10.770;2023-08-30T02:21:40;13.00;99.90
7704;DHT22;3894;49.700;10.770;2023-08-30T02:24:06;13.00;99.90
7704;DHT22;3894;49.700;10.770;2023-08-30T02:26:31;13.00;99.90
7704;DHT22;3894;49.700;10.770;2023-08-30T02:28:59;12.90;99.90
7704;DHT22;3894;49.700;10.770;2023-08-30T02:31:25;12.80;99.90
7704;DHT22;3894;49.700;10.770;2023-08-30T02:33:51;12.70;99.90
7704;DHT22;3894;49.700;10.770;2023-08-30T02:36:16;12.70;99.90
7704;DHT22;3894;49.700;10.770;2023-08-30T02:38:42;12.60;99.90
7704;DHT22;3894;49.700;10.770;2023-08-30T02:41:08;12.60;99.90
7704;DHT22;3894;49.700;10.770;2023-08-30T02:43:35;12.60;99.90
7704;DHT22;3894;49.700;10.770;2023-08-30T02:46:01;12.60;99.90
7704;DHT22;3894;49.700;10.770;2023-08-30T02:48:29;12.70;99.90
7704;DHT22;3894;49.700;10.770;2023-08-30T02:50:54;12.70;99.90
7704;DHT22;3894;49.700;10.770;2023-08-30T02:53:20;12.70;99.90
7704;DHT22;3894;49.700;10.770;2023-08-30T02:55:47;12.70;99.90
7704;DHT22;3894;49.700;10.770;2023-08-30T02:58:13;12.60;99.90
7704;DHT22;3894;49.700;10.770;2023-08-30T03:00:47;12.60;99.90
7704;DHT22;3894;49.700;10.770;2023-08-30T03:03:16;12.60;99.90
7704;DHT22;3894;49.700;10.770;2023-08-30T03:05:41;12.60;99.90
7704;DHT22;3894;49.700;10.770;2023-08-30T03:08:07;12.50;99.90
7704;DHT22;3894;49.700;10.770;2023-08-30T03:10:32;12.40;99.90
7704;DHT22;3894;49.700;10.770;2023-08-30T03:13:00;12.30;99.90
7704;DHT22;3894;49.700;10.770;2023-08-30T03:15:26;12.30;99.90
7704;DHT22;3894;49.700;10.770;2023-08-30T03:17:58;12.30;99.90
7704;DHT22;3894;49.700;10.770;2023-08-30T03:20:24;12.30;99.90
7704;DHT22;3894;49.700;10.770;2023-08-30T03:22:53;12.30;99.90
7704;DHT22;3894;49.700;10.770;2023-08-30T03:25:18;12.30;99.90
7704;DHT22;3894;49.700;10.770;2023-08-30T03:27:47;12.40;99.90
7704;DHT22;3894;49.700;10.770;2023-08-30T03:30:16;12.40;99.90
7704;DHT22;3894;49.700;10.770;2023-08-30T03:32:47;12.40;99.90
7704;DHT22;3894;49.700;10.770;2023-08-30T03:35:13;12.30;99.90
7704;DHT22;3894;49.700;10.770;2023-08-30T03:37:41;12.30;99.90
7704;DHT22;3894;49.700;10.770;2023-08-30T03:40:09;12.40;99.90
7704;DHT22;3894;49.700;10.770;2023-08-30T03:42:35;12.30;99.90
7704;DHT22;3894;49.700;10.770;2023-08-30T03:45:01;12.10;99.90
7704;DHT22;3894;49.700;10.770;2023-08-30T03:47:30;12.00;99.90
7704;DHT22;3894;49.700;10.770;2023-08-30T03:50:05;12.00;99.90
7704;DHT22;3894;49.700;10.770;2023-08-30T03:52:30;12.00;99.90
7704;DHT22;3894;49.700;10.770;2023-08-30T03:54:59;12.00;99.90
7704;DHT22;3894;49.700;10.770;2023-08-30T03:57:24;12.10;99.90
7704;DHT22;3894;49.700;10.770;2023-08-30T03:59:52;12.10;99.90
7704;DHT22;3894;49.700;10.770;2023-08-30T04:02:21;12.10;99.90
7704;DHT22;3894;49.700;10.770;2023-08-30T04:04:47;12.10;99.90
7704;DHT22;3894;49.700;10.770;2023-08-30T04:07:18;12.10;99.90
7704;DHT22;3894;49.700;10.770;2023-08-30T04:09:44;12.00;99.90
7704;DHT22;3894;49.700;10.770;2023-08-30T04:12:10;12.00;99.90
7704;DHT22;3894;49.700;10.770;2023-08-30T04:14:35;11.90;99.90
7704;DHT22;3894;49.700;10.770;2023-08-30T04:17:08;11.80;99.90
7704;DHT22;3894;49.700;10.770;2023-08-30T04:19:39;11.70;99.90
7704;DHT22;3894;49.700;10.770;2023-08-30T04:22:08;11.80;99.90
7704;DHT22;3894;49.700;10.770;2023-08-30T04:24:36;11.80;99.90
7704;DHT22;3894;49.700;10.770;2023-08-30T04:27:08;11.80;99.90
7704;DHT22;3894;49.700;10.770;2023-08-30T04:29:33;11.80;99.90
7704;DHT22;3894;49.700;10.770;2023-08-30T04:32:01;11.90;99.90
7704;DHT22;3894;49.700;10.770;2023-08-30T04:34:26;11.90;99.90
7704;DHT22;3894;49.700;10.770;2023-08-30T04:36:58;11.90;99.90
7704;DHT22;3894;49.700;10.770;2023-08-30T04:39:26;12.00;99.90
7704;DHT22;3894;49.700;10.770;2023-08-30T04:41:57;12.00;99.90
7704;DHT22;3894;49.700;10.770;2023-08-30T04:44:23;12.00;99.90
7704;DHT22;3894;49.700;10.770;2023-08-30T04:46:50;12.00;99.90
7704;DHT22;3894;49.700;10.770;2023-08-30T04:49:17;12.00;99.90
7704;DHT22;3894;49.700;10.770;2023-08-30T04:51:43;12.00;99.90
7704;DHT22;3894;49.700;10.770;2023-08-30T04:54:08;12.10;99.90
7704;DHT22;3894;49.700;10.770;2023-08-30T04:56:42;12.10;99.90
7704;DHT22;3894;49.700;10.770;2023-08-30T04:59:08;12.10;99.90
7704;DHT22;3894;49.700;10.770;2023-08-30T05:01:37;12.10;99.90
7704;DHT22;3894;49.700;10.770;2023-08-30T05:04:10;12.10;99.90
7704;DHT22;3894;49.700;10.770;2023-08-30T05:06:36;12.10;99.90
7704;DHT22;3894;49.700;10.770;2023-08-30T05:09:04;12.10;99.90
7704;DHT22;3894;49.700;10.770;2023-08-30T05:11:33;12.10;99.90
7704;DHT22;3894;49.700;10.770;2023-08-30T05:14:08;12.20;99.90
7704;DHT22;3894;49.700;10.770;2023-08-30T05:16:39;12.20;99.90
7704;DHT22;3894;49.700;10.770;2023-08-30T05:19:04;12.20;99.90
7704;DHT22;3894;49.700;10.770;2023-08-30T05:21:30;12.20;99.90
7704;DHT22;3894;49.700;10.770;2023-08-30T05:23:56;12.20;99.90
7704;DHT22;3894;49.700;10.770;2023-08-30T05:26:24;12.30;99.90
7704;DHT22;3894;49.700;10.770;2023-08-30T05:28:50;12.30;99.90
7704;DHT22;3894;49.700;10.770;2023-08-30T05:31:19;12.30;99.90
7704;DHT22;3894;49.700;10.770;2023-08-30T05:33:47;12.30;99.90
7704;DHT22;3894;49.700;10.770;2023-08-30T05:36:12;12.30;99.90
7704;DHT22;3894;49.700;10.770;2023-08-30T05:38:38;12.20;99.90
7704;DHT22;3894;49.700;10.770;2023-08-30T05:41:06;12.20;99.90
7704;DHT22;3894;49.700;10.770;2023-08-30T05:43:37;12.30;99.90
7704;DHT22;3894;49.700;10.770;2023-08-30T05:46:03;12.40;99.90
7704;DHT22;3894;49.700;10.770;2023-08-30T05:48:29;12.50;99.90
7704;DHT22;3894;49.700;10.770;2023-08-30T05:50:55;12.50;99.90
7704;DHT22;3894;49.700;10.770;2023-08-30T05:53:23;12.50;99.90
7704;DHT22;3894;49.700;10.770;2023-08-30T05:55:49;12.60;99.90
7704;DHT22;3894;49.700;10.770;2023-08-30T05:58:14;12.60;99.90
7704;DHT22;3894;49.700;10.770;2023-08-30T06:00:42;12.70;99.90
7704;DHT22;3894;49.700;10.770;2023-08-30T06:03:07;12.80;99.90
7704;DHT22;3894;49.700;10.770;2023-08-30T06:05:34;12.80;99.90
7704;DHT22;3894;49.700;10.770;2023-08-30T06:07:59;12.80;99.90
7704;DHT22;3894;49.700;10.770;2023-08-30T06:10:33;12.90;99.90
7704;DHT22;3894;49.700;10.770;2023-08-30T06:12:59;12.90;99.90
7704;DHT22;3894;49.700;10.770;2023-08-30T06:15:28;12.90;99.90
7704;DHT22;3894;49.700;10.770;2023-08-30T06:17:54;12.90;99.90
7704;DHT22;3894;49.700;10.770;2023-08-30T06:20:19;13.00;99.90
7704;DHT22;3894;49.700;10.770;2023-08-30T06:22:45;13.10;99.90
7704;DHT22;3894;49.700;10.770;2023-08-30T06:25:10;13.10;99.90
7704;DHT22;3894;49.700;10.770;2023-08-30T06:27:54;13.10;99.90
7704;DHT22;3894;49.700;10.770;2023-08-30T06:30:21;13.20;99.90
7704;DHT22;3894;49.700;10.770;2023-08-30T06:32:49;13.30;99.90
7704;DHT22;3894;49.700;10.770;2023-08-30T06:35:18;13.30;99.90
7704;DHT22;3894;49.700;10.770;2023-08-30T06:37:43;13.40;99.90
7704;DHT22;3894;49.700;10.770;2023-08-30T06:40:09;13.40;99.90
7704;DHT22;3894;49.700;10.770;2023-08-30T06:42:35;13.50;99.90
7704;DHT22;3894;49.700;10.770;2023-08-30T06:45:04;13.50;99.90
7704;DHT22;3894;49.700;10.770;2023-08-30T06:47:30;13.60;99.90
7704;DHT22;3894;49.700;10.770;2023-08-30T06:49:55;13.70;99.90
7704;DHT22;3894;49.700;10.770;2023-08-30T06:52:21;13.80;99.90
7704;DHT22;3894;49.700;10.770;2023-08-30T06:54:47;13.80;99.90
7704;DHT22;3894;49.700;10.770;2023-08-30T06:57:13;13.90;99.90
7704;DHT22;3894;49.700;10.770;2023-08-30T06:59:38;13.90;99.90
7704;DHT22;3894;49.700;10.770;2023-08-30T07:02:04;13.90;99.90
7704;DHT22;3894;49.700;10.770;2023-08-30T07:04:32;14.00;99.90
7704;DHT22;3894;49.700;10.770;2023-08-30T07:06:58;14.10;99.90
7704;DHT22;3894;49.700;10.770;2023-08-30T07:09:27;14.10;99.90
7704;DHT22;3894;49.700;10.770;2023-08-30T07:11:57;14.10;99.90
7704;DHT22;3894;49.700;10.770;2023-08-30T07:14:25;14.10;99.90
7704;DHT22;3894;49.700;10.770;2023-08-30T07:16:51;14.10;99.90
7704;DHT22;3894;49.700;10.770;2023-08-30T07:19:17;14.20;99.90
7704;DHT22;3894;49.700;10.770;2023-08-30T07:21:46;14.30;99.90
7704;DHT22;3894;49.700;10.770;2023-08-30T07:24:11;14.30;99.90
7704;DHT22;3894;49.700;10.770;2023-08-30T07:26:37;14.30;99.90
7704;DHT22;3894;49.700;10.770;2023-08-30T07:29:04;14.50;99.90
7704;DHT22;3894;49.700;10.770;2023-08-30T07:31:31;14.50;99.90
7704;DHT22;3894;49.700;10.770;2023-08-30T07:33:57;14.80;99.90
7704;DHT22;3894;49.700;10.770;2023-08-30T07:36:25;14.90;99.90
7704;DHT22;3894;49.700;10.770;2023-08-30T07:38:51;15.00;99.90
7704;DHT22;3894;49.700;10.770;2023-08-30T07:41:16;14.90;99.90
7704;DHT22;3894;49.700;10.770;2023-08-30T07:43:42;14.80;99.90
7704;DHT22;3894;49.700;10.770;2023-08-30T07:46:11;14.90;99.90
7704;DHT22;3894;49.700;10.770;2023-08-30T07:48:40;15.00;99.90
7704;DHT22;3894;49.700;10.770;2023-08-30T07:51:06;15.10;99.90
7704;DHT22;3894;49.700;10.770;2023-08-30T07:53:31;15.20;99.90
7704;DHT22;3894;49.700;10.770;2023-08-30T07:55:57;15.30;99.90
7704;DHT22;3894;49.700;10.770;2023-08-30T07:58:23;15.70;99.90
7704;DHT22;3894;49.700;10.770;2023-08-30T08:00:57;15.80;99.90
7704;DHT22;3894;49.700;10.770;2023-08-30T08:03:23;15.80;99.90
7704;DHT22;3894;49.700;10.770;2023-08-30T08:05:49;15.80;99.90
7704;DHT22;3894;49.700;10.770;2023-08-30T08:08:16;15.70;99.90
7704;DHT22;3894;49.700;10.770;2023-08-30T08:10:42;15.60;99.90
7704;DHT22;3894;49.700;10.770;2023-08-30T08:13:19;15.50;99.90
7704;DHT22;3894;49.700;10.770;2023-08-30T08:15:44;15.60;99.90
7704;DHT22;3894;49.700;10.770;2023-08-30T08:18:10;16.00;99.90
7704;DHT22;3894;49.700;10.770;2023-08-30T08:20:36;16.70;99.90
7704;DHT22;3894;49.700;10.770;2023-08-30T08:23:02;17.30;99.90
7704;DHT22;3894;49.700;10.770;2023-08-30T08:25:31;17.60;99.90
7704;DHT22;3894;49.700;10.770;2023-08-30T08:27:56;17.30;99.90
7704;DHT22;3894;49.700;10.770;2023-08-30T08:30:22;17.00;99.90
7704;DHT22;3894;49.700;10.770;2023-08-30T08:32:48;17.10;99.90
7704;DHT22;3894;49.700;10.770;2023-08-30T08:35:14;17.30;99.90
7704;DHT22;3894;49.700;10.770;2023-08-30T08:37:42;17.40;99.90
7704;DHT22;3894;49.700;10.770;2023-08-30T08:40:08;16.90;99.90
7704;DHT22;3894;49.700;10.770;2023-08-30T08:42:35;16.40;99.90
7704;DHT22;3894;49.700;10.770;2023-08-30T08:45:02;16.20;99.90
7704;DHT22;3894;49.700;10.770;2023-08-30T08:47:30;16.20;99.90
7704;DHT22;3894;49.700;10.770;2023-08-30T08:49:56;16.20;99.90
7704;DHT22;3894;49.700;10.770;2023-08-30T08:52:24;16.40;99.90
7704;DHT22;3894;49.700;10.770;2023-08-30T08:54:50;16.40;99.90
7704;DHT22;3894;49.700;10.770;2023-08-30T08:57:16;16.30;99.90
7704;DHT22;3894;49.700;10.770;2023-08-30T08:59:42;16.20;99.90
7704;DHT22;3894;49.700;10.770;2023-08-30T09:02:13;16.40;99.90
7704;DHT22;3894;49.700;10.770;2023-08-30T09:04:42;16.70;99.90
7704;DHT22;3894;49.700;10.770;2023-08-30T09:07:08;16.90;99.90
7704;DHT22;3894;49.700;10.770;2023-08-30T09:09:36;17.10;99.90
7704;DHT22;3894;49.700;10.770;2023-08-30T09:12:05;17.40;99.90
7704;DHT22;3894;49.700;10.770;2023-08-30T09:14:31;17.70;99.90
7704;DHT22;3894;49.700;10.770;2023-08-30T09:16:58;17.90;99.90
7704;DHT22;3894;49.700;10.770;2023-08-30T09:19:24;18.00;99.90
7704;DHT22;3894;49.700;10.770;2023-08-30T09:21:53;18.20;99.90
7704;DHT22;3894;49.700;10.770;2023-08-30T09:24:19;18.30;99.90
7704;DHT22;3894;49.700;10.770;2023-08-30T09:26:54;18.30;99.90
7704;DHT22;3894;49.700;10.770;2023-08-30T09:29:21;18.20;99.90
7704;DHT22;3894;49.700;10.770;2023-08-30T09:31:51;18.00;99.90
7704;DHT22;3894;49.700;10.770;2023-08-30T09:34:22;17.90;99.90
7704;DHT22;3894;49.700;10.770;2023-08-30T09:36:49;18.40;99.90
7704;DHT22;3894;49.700;10.770;2023-08-30T09:39:15;18.50;99.90
7704;DHT22;3894;49.700;10.770;2023-08-30T09:41:46;18.40;99.90
7704;DHT22;3894;49.700;10.770;2023-08-30T09:44:19;18.30;99.90
7704;DHT22;3894;49.700;10.770;2023-08-30T09:46:52;18.50;99.90
7704;DHT22;3894;49.700;10.770;2023-08-30T09:49:25;18.70;99.90
7704;DHT22;3894;49.700;10.770;2023-08-30T09:51:52;18.70;99.90
7704;DHT22;3894;49.700;10.770;2023-08-30T09:54:22;18.60;99.90
7704;DHT22;3894;49.700;10.770;2023-08-30T09:56:51;18.70;99.90
7704;DHT22;3894;49.700;10.770;2023-08-30T09:59:18;19.00;99.90
7704;DHT22;3894;49.700;10.770;2023-08-30T10:01:47;19.00;99.90
7704;DHT22;3894;49.700;10.770;2023-08-30T10:04:15;19.10;99.90
7704;DHT22;3894;49.700;10.770;2023-08-30T10:06:43;19.50;99.90
7704;DHT22;3894;49.700;10.770;2023-08-30T10:09:10;19.40;99.90
7704;DHT22;3894;49.700;10.770;2023-08-30T10:11:37;19.10;99.90
7704;DHT22;3894;49.700;10.770;2023-08-30T10:14:08;19.30;99.90
7704;DHT22;3894;49.700;10.770;2023-08-30T10:16:47;19.50;99.90
7704;DHT22;3894;49.700;10.770;2023-08-30T10:19:24;19.70;99.90
7704;DHT22;3894;49.700;10.770;2023-08-30T10:22:04;19.90;99.90
7704;DHT22;3894;49.700;10.770;2023-08-30T10:24:35;20.20;99.90
7704;DHT22;3894;49.700;10.770;2023-08-30T10:27:05;20.20;99.90
7704;DHT22;3894;49.700;10.770;2023-08-30T10:29:33;19.80;99.90
7704;DHT22;3894;49.700;10.770;2023-08-30T10:32:06;19.20;99.90
7704;DHT22;3894;49.700;10.770;2023-08-30T10:34:38;18.90;99.90
7704;DHT22;3894;49.700;10.770;2023-08-30T10:37:07;19.10;99.90
7704;DHT22;3894;49.700;10.770;2023-08-30T10:39:38;19.20;99.90
7704;DHT22;3894;49.700;10.770;2023-08-30T10:42:09;19.20;99.90
7704;DHT22;3894;49.700;10.770;2023-08-30T10:44:35;19.20;99.90
7704;DHT22;3894;49.700;10.770;2023-08-30T10:47:02;19.30;99.90
7704;DHT22;3894;49.700;10.770;2023-08-30T10:49:29;19.30;99.90
7704;DHT22;3894;49.700;10.770;2023-08-30T10:52:11;19.20;99.90
7704;DHT22;3894;49.700;10.770;2023-08-30T10:54:37;19.00;99.90
7704;DHT22;3894;49.700;10.770;2023-08-30T10:57:17;18.90;99.90
7704;DHT22;3894;49.700;10.770;2023-08-30T11:02:33;18.80;99.90
7704;DHT22;3894;49.700;10.770;2023-08-30T11:04:59;18.80;99.90
7704;DHT22;3894;49.700;10.770;2023-08-30T11:07:25;18.70;99.90
7704;DHT22;3894;49.700;10.770;2023-08-30T11:09:52;18.60;99.90
7704;DHT22;3894;49.700;10.770;2023-08-30T11:12:21;18.40;99.90
7704;DHT22;3894;49.700;10.770;2023-08-30T11:14:52;18.30;99.90
7704;DHT22;3894;49.700;10.770;2023-08-30T11:17:20;18.40;99.90
7704;DHT22;3894;49.700;10.770;2023-08-30T11:19:48;18.40;99.90
7704;DHT22;3894;49.700;10.770;2023-08-30T11:22:15;18.40;99.90
7704;DHT22;3894;49.700;10.770;2023-08-30T11:24:42;18.40;99.90
7704;DHT22;3894;49.700;10.770;2023-08-30T11:27:10;18.40;99.90
7704;DHT22;3894;49.700;10.770;2023-08-30T11:29:36;18.40;99.90
7704;DHT22;3894;49.700;10.770;2023-08-30T11:32:07;18.60;99.90
7704;DHT22;3894;49.700;10.770;2023-08-30T11:34:33;18.60;99.90
7704;DHT22;3894;49.700;10.770;2023-08-30T11:36:58;18.80;99.90
7704;DHT22;3894;49.700;10.770;2023-08-30T11:39:28;18.80;99.90
7704;DHT22;3894;49.700;10.770;2023-08-30T11:41:54;18.90;99.90
7704;DHT22;3894;49.700;10.770;2023-08-30T11:44:28;19.00;99.90
7704;DHT22;3894;49.700;10.770;2023-08-30T11:47:00;19.10;99.90
7704;DHT22;3894;49.700;10.770;2023-08-30T11:49:29;19.00;99.90
7704;DHT22;3894;49.700;10.770;2023-08-30T11:51:57;18.90;99.90
7704;DHT22;3894;49.700;10.770;2023-08-30T11:54:28;19.40;99.90
7704;DHT22;3894;49.700;10.770;2023-08-30T11:56:53;19.50;99.90
7704;DHT22;3894;49.700;10.770;2023-08-30T11:59:20;19.30;99.90
7704;DHT22;3894;49.700;10.770;2023-08-30T12:01:49;19.20;99.90
7704;DHT22;3894;49.700;10.770;2023-08-30T12:04:17;19.00;99.90
7704;DHT22;3894;49.700;10.770;2023-08-30T12:06:50;19.00;99.90
7704;DHT22;3894;49.700;10.770;2023-08-30T12:09:16;19.10;99.90
7704;DHT22;3894;49.700;10.770;2023-08-30T12:11:44;19.20;99.90
7704;DHT22;3894;49.700;10.770;2023-08-30T12:14:10;19.30;99.90
7704;DHT22;3894;49.700;10.770;2023-08-30T12:16:36;19.30;99.90
7704;DHT22;3894;49.700;10.770;2023-08-30T12:19:09;19.30;99.90
7704;DHT22;3894;49.700;10.770;2023-08-30T12:21:47;19.30;99.90
7704;DHT22;3894;49.700;10.770;2023-08-30T12:24:13;19.40;99.90
7704;DHT22;3894;49.700;10.770;2023-08-30T12:26:38;19.60;99.90
7704;DHT22;3894;49.700;10.770;2023-08-30T12:29:05;20.20;99.90
7704;DHT22;3894;49.700;10.770;2023-08-30T12:31:35;20.40;99.90
7704;DHT22;3894;49.700;10.770;2023-08-30T12:34:03;20.30;99.90
7704;DHT22;3894;49.700;10.770;2023-08-30T12:36:29;20.20;99.90
7704;DHT22;3894;49.700;10.770;2023-08-30T12:38:57;20.40;99.90
7704;DHT22;3894;49.700;10.770;2023-08-30T12:41:23;20.60;99.90
7704;DHT22;3894;49.700;10.770;2023-08-30T12:43:49;20.90;99.90
7704;DHT22;3894;49.700;10.770;2023-08-30T12:46:15;21.10;99.90
7704;DHT22;3894;49.700;10.770;2023-08-30T12:48:44;21.10;99.90
7704;DHT22;3894;49.700;10.770;2023-08-30T12:51:11;21.10;99.90
7704;DHT22;3894;49.700;10.770;2023-08-30T12:53:39;21.00;99.90
7704;DHT22;3894;49.700;10.770;2023-08-30T12:56:04;21.10;99.90
7704;DHT22;3894;49.700;10.770;2023-08-30T12:58:30;21.00;99.90
7704;DHT22;3894;49.700;10.770;2023-08-30T13:00:55;20.70;99.90
7704;DHT22;3894;49.700;10.770;2023-08-30T13:03:24;20.60;99.90
7704;DHT22;3894;49.700;10.770;2023-08-30T13:05:49;20.70;99.90
7704;DHT22;3894;49.700;10.770;2023-08-30T13:08:15;20.80;99.90
7704;DHT22;3894;49.700;10.770;2023-08-30T13:10:40;20.80;99.90
7704;DHT22;3894;49.700;10.770;2023-08-30T13:13:06;20.70;99.90
7704;DHT22;3894;49.700;10.770;2023-08-30T13:15:31;20.70;99.90
7704;DHT22;3894;49.700;10.770;2023-08-30T13:18:00;20.60;99.90
7704;DHT22;3894;49.700;10.770;2023-08-30T13:20:28;20.60;99.90
7704;DHT22;3894;49.700;10.770;2023-08-30T13:22:54;20.50;99.90
7704;DHT22;3894;49.700;10.770;2023-08-30T13:25:20;20.50;99.90
7704;DHT22;3894;49.700;10.770;2023-08-30T13:27:48;20.50;99.90
7704;DHT22;3894;49.700;10.770;2023-08-30T13:30:14;20.60;99.90
7704;DHT22;3894;49.700;10.770;2023-08-30T13:32:39;20.60;99.90
7704;DHT22;3894;49.700;10.770;2023-08-30T13:35:05;20.70;99.90
7704;DHT22;3894;49.700;10.770;2023-08-30T13:37:31;20.70;99.90
7704;DHT22;3894;49.700;10.770;2023-08-30T13:39:56;20.70;99.90
7704;DHT22;3894;49.700;10.770;2023-08-30T13:42:22;20.70;99.90
7704;DHT22;3894;49.700;10.770;2023-08-30T13:44:50;20.70;99.90
7704;DHT22;3894;49.700;10.770;2023-08-30T13:47:16;20.60;99.90
7704;DHT22;3894;49.700;10.770;2023-08-30T13:49:42;20.50;99.90
7704;DHT22;3894;49.700;10.770;2023-08-30T13:52:13;20.50;99.90
7704;DHT22;3894;49.700;10.770;2023-08-30T13:54:39;20.50;99.90
7704;DHT22;3894;49.700;10.770;2023-08-30T13:57:04;20.60;99.90
7704;DHT22;3894;49.700;10.770;2023-08-30T13:59:30;20.60;99.90
7704;DHT22;3894;49.700;10.770;2023-08-30T14:01:56;20.60;99.90
7704;DHT22;3894;49.700;10.770;2023-08-30T14:04:24;20.60;99.90
7704;DHT22;3894;49.700;10.770;2023-08-30T14:06:50;20.50;99.90
7704;DHT22;3894;49.700;10.770;2023-08-30T14:09:16;20.60;99.90
7704;DHT22;3894;49.700;10.770;2023-08-30T14:11:42;20.70;99.90
7704;DHT22;3894;49.700;10.770;2023-08-30T14:14:11;20.60;99.90
7704;DHT22;3894;49.700;10.770;2023-08-30T14:16:36;20.50;99.90
7704;DHT22;3894;49.700;10.770;2023-08-30T14:19:02;20.50;99.90
7704;DHT22;3894;49.700;10.770;2023-08-30T14:21:31;20.40;99.90
7704;DHT22;3894;49.700;10.770;2023-08-30T14:24:00;20.40;99.90
7704;DHT22;3894;49.700;10.770;2023-08-30T14:26:26;20.40;99.90
7704;DHT22;3894;49.700;10.770;2023-08-30T14:28:51;20.40;99.90
7704;DHT22;3894;49.700;10.770;2023-08-30T14:31:17;20.40;99.90
7704;DHT22;3894;49.700;10.770;2023-08-30T14:33:46;20.40;99.90
7704;DHT22;3894;49.700;10.770;2023-08-30T14:36:12;20.30;99.90
7704;DHT22;3894;49.700;10.770;2023-08-30T14:38:38;20.30;99.90
7704;DHT22;3894;49.700;10.770;2023-08-30T14:41:06;20.30;99.90
7704;DHT22;3894;49.700;10.770;2023-08-30T14:43:32;20.30;99.90
7704;DHT22;3894;49.700;10.770;2023-08-30T14:46:02;20.30;99.90
7704;DHT22;3894;49.700;10.770;2023-08-30T14:48:33;20.30;99.90
7704;DHT22;3894;49.700;10.770;2023-08-30T14:51:00;20.40;99.90
7704;DHT22;3894;49.700;10.770;2023-08-30T14:53:26;20.40;99.90
7704;DHT22;3894;49.700;10.770;2023-08-30T14:55:51;20.40;99.90
7704;DHT22;3894;49.700;10.770;2023-08-30T14:58:19;20.40;99.90
7704;DHT22;3894;49.700;10.770;2023-08-30T15:00:47;20.30;99.90
7704;DHT22;3894;49.700;10.770;2023-08-30T15:03:16;20.40;99.90
7704;DHT22;3894;49.700;10.770;2023-08-30T15:05:52;20.40;99.90
7704;DHT22;3894;49.700;10.770;2023-08-30T15:08:22;20.50;99.90
7704;DHT22;3894;49.700;10.770;2023-08-30T15:10:48;20.60;99.90
7704;DHT22;3894;49.700;10.770;2023-08-30T15:13:21;20.70;99.90
7704;DHT22;3894;49.700;10.770;2023-08-30T15:15:47;20.70;99.90
7704;DHT22;3894;49.700;10.770;2023-08-30T15:18:13;20.60;99.90
7704;DHT22;3894;49.700;10.770;2023-08-30T15:20:38;20.60;99.90
7704;DHT22;3894;49.700;10.770;2023-08-30T15:23:09;20.50;99.90
7704;DHT22;3894;49.700;10.770;2023-08-30T15:25:39;20.50;99.90
7704;DHT22;3894;49.700;10.770;2023-08-30T15:28:08;20.60;99.90
7704;DHT22;3894;49.700;10.770;2023-08-30T15:30:33;20.60;99.90
7704;DHT22;3894;49.700;10.770;2023-08-30T15:32:59;20.70;99.90
7704;DHT22;3894;49.700;10.770;2023-08-30T15:35:24;20.60;99.90
7704;DHT22;3894;49.700;10.770;2023-08-30T15:37:50;20.60;99.90
7704;DHT22;3894;49.700;10.770;2023-08-30T15:40:16;20.60;99.90
7704;DHT22;3894;49.700;10.770;2023-08-30T15:42:41;20.60;99.90
7704;DHT22;3894;49.700;10.770;2023-08-30T15:45:10;20.60;99.90
7704;DHT22;3894;49.700;10.770;2023-08-30T15:47:35;20.60;99.90
7704;DHT22;3894;49.700;10.770;2023-08-30T15:50:01;20.50;99.90
7704;DHT22;3894;49.700;10.770;2023-08-30T15:52:34;20.60;99.90
7704;DHT22;3894;49.700;10.770;2023-08-30T15:55:00;20.60;99.90
7704;DHT22;3894;49.700;10.770;2023-08-30T15:57:26;20.60;99.90
7704;DHT22;3894;49.700;10.770;2023-08-30T15:59:51;20.50;99.90